createdAt,value
2019-03-24T00:00:21.616Z,974.97
2019-03-24T00:01:21.607Z,974.99
2019-03-24T00:02:21.599Z,974.96
2019-03-24T00:03:21.598Z,974.95
2019-03-24T00:04:21.584Z,974.92
2019-03-24T00:05:21.578Z,974.97
2019-03-24T00:06:21.567Z,974.97
2019-03-24T00:07:21.560Z,974.94
2019-03-24T00:08:21.553Z,974.94
2019-03-24T00:09:21.547Z,974.97
2019-03-24T00:10:21.538Z,974.94
2019-03-24T00:11:21.528Z,974.96
2019-03-24T00:12:21.521Z,974.94
2019-03-24T00:13:21.511Z,974.94
2019-03-24T00:14:21.505Z,974.92
2019-03-24T00:15:25.950Z,974.93
2019-03-24T00:16:21.489Z,974.97
2019-03-24T00:17:21.480Z,974.93
2019-03-24T00:18:21.473Z,974.89
2019-03-24T00:19:21.465Z,974.94
2019-03-24T00:20:21.456Z,974.88
2019-03-24T00:21:21.449Z,974.89
2019-03-24T00:22:21.441Z,974.89
2019-03-24T00:23:21.434Z,974.88
2019-03-24T00:24:21.424Z,974.87
2019-03-24T00:25:21.417Z,974.84
2019-03-24T00:26:23.430Z,974.85
2019-03-24T00:27:21.400Z,974.82
2019-03-24T00:28:21.394Z,974.82
2019-03-24T00:29:21.385Z,974.79
2019-03-24T00:30:21.378Z,974.76
2019-03-24T00:31:21.368Z,974.73
2019-03-24T00:32:21.360Z,974.74
2019-03-24T00:33:21.453Z,974.7
2019-03-24T00:34:21.345Z,974.77
2019-03-24T00:35:21.336Z,974.77
2019-03-24T00:36:21.332Z,974.76
2019-03-24T00:37:21.322Z,974.75
2019-03-24T00:38:21.312Z,974.73
2019-03-24T00:39:21.305Z,974.71
2019-03-24T00:40:21.298Z,974.76
2019-03-24T00:41:21.288Z,974.77
2019-03-24T00:42:21.281Z,974.7
2019-03-24T00:43:21.273Z,974.73
2019-03-24T00:44:21.266Z,974.73
2019-03-24T00:45:21.258Z,974.67
2019-03-24T00:46:21.248Z,974.7
2019-03-24T00:47:21.241Z,974.69
2019-03-24T00:48:21.234Z,974.65
2019-03-24T00:49:21.223Z,974.68
2019-03-24T00:50:21.216Z,974.67
2019-03-24T00:51:21.208Z,974.65
2019-03-24T00:52:21.201Z,974.61
2019-03-24T00:53:21.191Z,974.6
2019-03-24T00:54:21.185Z,974.56
2019-03-24T00:55:21.176Z,974.6
2019-03-24T00:56:21.167Z,974.5
2019-03-24T00:57:21.159Z,974.47
2019-03-24T00:58:21.153Z,974.5
2019-03-24T00:59:21.145Z,974.48
2019-03-24T01:00:21.136Z,974.48
2019-03-24T01:01:21.128Z,974.49
2019-03-24T01:02:21.119Z,974.45
2019-03-24T01:03:21.112Z,974.47
2019-03-24T01:04:21.103Z,974.44
2019-03-24T01:05:21.094Z,974.41
2019-03-24T01:06:21.087Z,974.4
2019-03-24T01:07:21.080Z,974.41
2019-03-24T01:08:21.070Z,974.41
2019-03-24T01:09:21.063Z,974.38
2019-03-24T01:10:21.056Z,974.4
2019-03-24T01:11:21.049Z,974.38
2019-03-24T01:12:21.039Z,974.39
2019-03-24T01:13:21.037Z,974.37
2019-03-24T01:14:21.022Z,974.4
2019-03-24T01:15:21.013Z,974.38
2019-03-24T01:16:21.005Z,974.41
2019-03-24T01:17:20.997Z,974.38
2019-03-24T01:18:20.992Z,974.39
2019-03-24T01:19:20.981Z,974.36
2019-03-24T01:20:20.974Z,974.41
2019-03-24T01:21:20.966Z,974.38
2019-03-24T01:22:20.958Z,974.36
2019-03-24T01:23:20.949Z,974.34
2019-03-24T01:24:20.943Z,974.39
2019-03-24T01:25:20.932Z,974.38
2019-03-24T01:26:20.927Z,974.32
2019-03-24T01:27:20.915Z,974.32
2019-03-24T01:28:20.909Z,974.34
2019-03-24T01:29:20.900Z,974.31
2019-03-24T01:30:20.891Z,974.29
2019-03-24T01:31:20.884Z,974.31
2019-03-24T01:32:20.875Z,974.29
2019-03-24T01:33:20.867Z,974.22
2019-03-24T01:34:20.862Z,974.27
2019-03-24T01:35:20.851Z,974.3
2019-03-24T01:36:20.843Z,974.25
2019-03-24T01:37:20.834Z,974.26
2019-03-24T01:38:20.826Z,974.23
2019-03-24T01:39:20.819Z,974.29
2019-03-24T01:40:20.811Z,974.27
2019-03-24T01:41:20.803Z,974.29
2019-03-24T01:42:20.796Z,974.3
2019-03-24T01:43:20.785Z,974.33
2019-03-24T01:44:20.777Z,974.31
2019-03-24T01:45:20.769Z,974.33
2019-03-24T01:46:20.763Z,974.35
2019-03-24T01:47:20.752Z,974.28
2019-03-24T01:48:20.744Z,974.28
2019-03-24T01:49:20.737Z,974.3
2019-03-24T01:50:20.732Z,974.26
2019-03-24T01:51:20.869Z,974.28
2019-03-24T01:52:20.712Z,974.24
2019-03-24T01:53:20.704Z,974.26
2019-03-24T01:54:20.695Z,974.24
2019-03-24T01:55:20.686Z,974.26
2019-03-24T01:56:20.679Z,974.2
2019-03-24T01:57:20.671Z,974.23
2019-03-24T01:58:20.665Z,974.19
2019-03-24T01:59:20.654Z,974.21
2019-03-24T02:00:20.646Z,974.19
2019-03-24T02:01:20.638Z,974.21
2019-03-24T02:02:20.641Z,974.21
2019-03-24T02:03:20.621Z,974.14
2019-03-24T02:04:20.614Z,974.15
2019-03-24T02:05:20.609Z,974.13
2019-03-24T02:06:20.597Z,974.12
2019-03-24T02:07:20.589Z,974.12
2019-03-24T02:08:20.581Z,974.1
2019-03-24T02:09:20.574Z,974.12
2019-03-24T02:10:20.568Z,974.08
2019-03-24T02:11:20.557Z,974.11
2019-03-24T02:12:20.559Z,974.08
2019-03-24T02:13:20.544Z,974.04
2019-03-24T02:14:20.530Z,974.08
2019-03-24T02:15:20.561Z,974.05
2019-03-24T02:16:20.514Z,974.1
2019-03-24T02:17:20.505Z,974.08
2019-03-24T02:18:20.496Z,974.02
2019-03-24T02:19:20.489Z,974.07
2019-03-24T02:20:20.480Z,974.06
2019-03-24T02:21:20.472Z,974.07
2019-03-24T02:22:20.465Z,974.04
2019-03-24T02:23:20.458Z,974.05
2019-03-24T02:24:20.448Z,974.05
2019-03-24T02:25:20.439Z,974.05
2019-03-24T02:26:20.431Z,974.04
2019-03-24T02:27:20.423Z,974.01
2019-03-24T02:28:20.415Z,973.99
2019-03-24T02:29:20.405Z,973.97
2019-03-24T02:30:20.416Z,973.98
2019-03-24T02:31:20.392Z,973.93
2019-03-24T02:32:20.383Z,973.97
2019-03-24T02:33:20.372Z,973.94
2019-03-24T02:34:20.368Z,973.95
2019-03-24T02:35:20.357Z,973.97
2019-03-24T02:36:20.348Z,973.91
2019-03-24T02:37:20.341Z,973.96
2019-03-24T02:38:20.333Z,973.97
2019-03-24T02:39:20.326Z,973.96
2019-03-24T02:40:20.316Z,973.92
2019-03-24T02:41:20.306Z,973.9
2019-03-24T02:42:20.301Z,973.9
2019-03-24T02:43:20.290Z,973.88
2019-03-24T02:44:20.285Z,973.91
2019-03-24T02:45:20.275Z,973.89
2019-03-24T02:46:24.425Z,973.93
2019-03-24T02:47:20.257Z,973.87
2019-03-24T02:48:20.250Z,973.88
2019-03-24T02:49:20.240Z,973.89
2019-03-24T02:50:20.230Z,973.9
2019-03-24T02:51:20.223Z,973.88
2019-03-24T02:52:20.214Z,973.91
2019-03-24T02:53:20.207Z,973.86
2019-03-24T02:54:20.199Z,973.92
2019-03-24T02:55:20.189Z,973.88
2019-03-24T02:56:20.182Z,973.9
2019-03-24T02:57:20.175Z,973.86
2019-03-24T02:58:20.165Z,973.9
2019-03-24T02:59:20.159Z,973.86
2019-03-24T03:00:20.147Z,973.9
2019-03-24T03:01:20.139Z,973.87
2019-03-24T03:02:20.133Z,973.91
2019-03-24T03:03:20.120Z,973.87
2019-03-24T03:04:20.113Z,973.88
2019-03-24T03:05:20.108Z,973.92
2019-03-24T03:06:20.101Z,973.89
2019-03-24T03:07:20.094Z,973.94
2019-03-24T03:08:20.082Z,973.92
2019-03-24T03:09:20.120Z,973.91
2019-03-24T03:10:20.066Z,973.95
2019-03-24T03:11:20.059Z,973.98
2019-03-24T03:12:20.047Z,973.97
2019-03-24T03:13:20.039Z,974
2019-03-24T03:14:20.029Z,973.98
2019-03-24T03:15:20.058Z,973.97
2019-03-24T03:16:20.012Z,973.96
2019-03-24T03:17:20.003Z,973.95
2019-03-24T03:18:19.998Z,973.97
2019-03-24T03:19:19.989Z,973.94
2019-03-24T03:20:19.979Z,973.96
2019-03-24T03:21:19.970Z,973.95
2019-03-24T03:22:19.962Z,973.95
2019-03-24T03:23:19.952Z,973.96
2019-03-24T03:24:19.945Z,973.94
2019-03-24T03:25:19.936Z,973.96
2019-03-24T03:26:19.928Z,973.96
2019-03-24T03:27:19.920Z,974
2019-03-24T03:28:19.912Z,974.01
2019-03-24T03:29:19.902Z,974.07
2019-03-24T03:30:19.893Z,974.01
2019-03-24T03:31:20.029Z,974.08
2019-03-24T03:32:19.881Z,974.09
2019-03-24T03:33:19.876Z,974.1
2019-03-24T03:34:19.905Z,974.08
2019-03-24T03:35:19.853Z,974.09
2019-03-24T03:36:19.872Z,974.09
2019-03-24T03:37:19.834Z,974.06
2019-03-24T03:38:19.829Z,974.09
2019-03-24T03:39:19.821Z,974.13
2019-03-24T03:40:19.847Z,974.09
2019-03-24T03:41:19.802Z,974.11
2019-03-24T03:42:19.794Z,974.08
2019-03-24T03:43:19.784Z,974.09
2019-03-24T03:44:19.777Z,974.09
2019-03-24T03:45:19.769Z,974.11
2019-03-24T03:46:19.759Z,974.1
2019-03-24T03:47:19.752Z,974.09
2019-03-24T03:48:19.742Z,974.12
2019-03-24T03:49:19.733Z,974.14
2019-03-24T03:50:19.744Z,974.15
2019-03-24T03:51:19.716Z,974.14
2019-03-24T03:52:19.712Z,974.17
2019-03-24T03:53:19.702Z,974.19
2019-03-24T03:54:19.691Z,974.22
2019-03-24T03:55:19.684Z,974.23
2019-03-24T03:56:19.681Z,974.23
2019-03-24T03:57:19.666Z,974.28
2019-03-24T03:58:19.657Z,974.21
2019-03-24T03:59:19.661Z,974.22
2019-03-24T04:00:19.643Z,974.18
2019-03-24T04:01:19.632Z,974.24
2019-03-24T04:02:19.623Z,974.14
2019-03-24T04:03:19.612Z,974.19
2019-03-24T04:04:19.611Z,974.19
2019-03-24T04:05:19.597Z,974.19
2019-03-24T04:06:19.589Z,974.12
2019-03-24T04:07:19.579Z,974.12
2019-03-24T04:08:19.572Z,974.15
2019-03-24T04:09:19.564Z,974.2
2019-03-24T04:10:19.554Z,974.15
2019-03-24T04:11:19.545Z,974.18
2019-03-24T04:12:19.538Z,974.14
2019-03-24T04:13:19.530Z,974.21
2019-03-24T04:14:19.520Z,974.18
2019-03-24T04:15:19.511Z,974.14
2019-03-24T04:16:19.515Z,974.16
2019-03-24T04:17:19.500Z,974.12
2019-03-24T04:18:19.488Z,974.1
2019-03-24T04:19:19.482Z,974.11
2019-03-24T04:20:19.467Z,974.13
2019-03-24T04:21:19.461Z,974.11
2019-03-24T04:22:19.453Z,974.16
2019-03-24T04:23:19.442Z,974.14
2019-03-24T04:24:19.435Z,974.19
2019-03-24T04:25:19.424Z,974.21
2019-03-24T04:26:19.417Z,974.26
2019-03-24T04:27:19.408Z,974.26
2019-03-24T04:28:19.399Z,974.28
2019-03-24T04:29:19.391Z,974.28
2019-03-24T04:30:19.383Z,974.3
2019-03-24T04:31:19.376Z,974.29
2019-03-24T04:32:19.367Z,974.28
2019-03-24T04:33:19.373Z,974.27
2019-03-24T04:34:19.349Z,974.23
2019-03-24T04:35:19.338Z,974.25
2019-03-24T04:36:19.330Z,974.25
2019-03-24T04:37:19.322Z,974.21
2019-03-24T04:38:19.313Z,974.21
2019-03-24T04:39:19.309Z,974.25
2019-03-24T04:40:19.303Z,974.25
2019-03-24T04:41:19.287Z,974.23
2019-03-24T04:42:19.278Z,974.24
2019-03-24T04:43:19.340Z,974.27
2019-03-24T04:44:19.261Z,974.26
2019-03-24T04:45:19.254Z,974.25
2019-03-24T04:46:19.243Z,974.3
2019-03-24T04:47:19.234Z,974.32
2019-03-24T04:48:19.226Z,974.25
2019-03-24T04:49:19.218Z,974.25
2019-03-24T04:50:19.210Z,974.25
2019-03-24T04:51:19.200Z,974.22
2019-03-24T04:52:19.191Z,974.28
2019-03-24T04:53:20.745Z,974.27
2019-03-24T04:54:19.174Z,974.31
2019-03-24T04:55:19.168Z,974.33
2019-03-24T04:56:19.158Z,974.34
2019-03-24T04:57:19.147Z,974.34
2019-03-24T04:58:19.139Z,974.37
2019-03-24T04:59:19.131Z,974.37
2019-03-24T05:00:19.123Z,974.35
2019-03-24T05:01:19.115Z,974.35
2019-03-24T05:02:19.107Z,974.38
2019-03-24T05:03:19.097Z,974.38
2019-03-24T05:04:19.092Z,974.38
2019-03-24T05:05:19.080Z,974.4
2019-03-24T05:06:19.074Z,974.39
2019-03-24T05:07:19.062Z,974.42
2019-03-24T05:08:19.056Z,974.46
2019-03-24T05:09:19.045Z,974.42
2019-03-24T05:10:19.038Z,974.46
2019-03-24T05:11:19.029Z,974.44
2019-03-24T05:12:19.019Z,974.46
2019-03-24T05:13:19.010Z,974.44
2019-03-24T05:14:19.002Z,974.43
2019-03-24T05:15:18.994Z,974.41
2019-03-24T05:16:18.985Z,974.41
2019-03-24T05:17:26.641Z,974.44
2019-03-24T05:18:18.967Z,974.44
2019-03-24T05:19:18.958Z,974.44
2019-03-24T05:20:18.949Z,974.47
2019-03-24T05:21:18.945Z,974.46
2019-03-24T05:22:18.936Z,974.47
2019-03-24T05:23:18.925Z,974.47
2019-03-24T05:24:18.914Z,974.46
2019-03-24T05:25:18.906Z,974.5
2019-03-24T05:26:18.900Z,974.48
2019-03-24T05:27:18.888Z,974.46
2019-03-24T05:28:18.880Z,974.49
2019-03-24T05:29:18.885Z,974.5
2019-03-24T05:30:18.863Z,974.49
2019-03-24T05:31:18.853Z,974.49
2019-03-24T05:32:18.845Z,974.47
2019-03-24T05:33:18.840Z,974.5
2019-03-24T05:34:18.828Z,974.48
2019-03-24T05:35:18.820Z,974.53
2019-03-24T05:36:18.810Z,974.49
2019-03-24T05:37:18.803Z,974.47
2019-03-24T05:38:18.799Z,974.46
2019-03-24T05:39:18.785Z,974.49
2019-03-24T05:40:18.778Z,974.48
2019-03-24T05:41:18.767Z,974.49
2019-03-24T05:42:18.758Z,974.49
2019-03-24T05:43:18.760Z,974.49
2019-03-24T05:44:18.742Z,974.44
2019-03-24T05:45:18.731Z,974.46
2019-03-24T05:46:18.722Z,974.46
2019-03-24T05:47:18.714Z,974.45
2019-03-24T05:48:18.705Z,974.42
2019-03-24T05:49:18.698Z,974.47
2019-03-24T05:50:18.688Z,974.41
2019-03-24T05:51:18.679Z,974.4
2019-03-24T05:52:18.671Z,974.37
2019-03-24T05:53:18.664Z,974.35
2019-03-24T05:54:18.654Z,974.36
2019-03-24T05:55:18.644Z,974.31
2019-03-24T05:56:18.635Z,974.31
2019-03-24T05:57:18.627Z,974.3
2019-03-24T05:58:18.618Z,974.34
2019-03-24T05:59:18.610Z,974.28
2019-03-24T06:00:18.600Z,974.25
2019-03-24T06:01:18.591Z,974.26
2019-03-24T06:02:18.583Z,974.29
2019-03-24T06:03:18.574Z,974.22
2019-03-24T06:04:18.565Z,974.26
2019-03-24T06:05:18.559Z,974.28
2019-03-24T06:06:18.548Z,974.29
2019-03-24T06:07:18.538Z,974.27
2019-03-24T06:08:18.531Z,974.32
2019-03-24T06:09:18.521Z,974.33
2019-03-24T06:10:18.513Z,974.3
2019-03-24T06:11:18.509Z,974.36
2019-03-24T06:12:18.496Z,974.32
2019-03-24T06:13:18.487Z,974.35
2019-03-24T06:14:18.478Z,974.33
2019-03-24T06:15:18.469Z,974.36
2019-03-24T06:16:18.510Z,974.36
2019-03-24T06:17:18.452Z,974.37
2019-03-24T06:18:18.442Z,974.37
2019-03-24T06:19:18.434Z,974.37
2019-03-24T06:20:18.425Z,974.35
2019-03-24T06:21:18.417Z,974.34
2019-03-24T06:22:18.409Z,974.38
2019-03-24T06:23:18.399Z,974.37
2019-03-24T06:24:18.391Z,974.4
2019-03-24T06:25:18.393Z,974.44
2019-03-24T06:26:18.373Z,974.46
2019-03-24T06:27:18.365Z,974.45
2019-03-24T06:28:18.356Z,974.47
2019-03-24T06:29:18.348Z,974.45
2019-03-24T06:30:18.339Z,974.45
2019-03-24T06:31:18.330Z,974.47
2019-03-24T06:32:18.322Z,974.42
2019-03-24T06:33:18.312Z,974.45
2019-03-24T06:34:18.304Z,974.45
2019-03-24T06:35:18.296Z,974.45
2019-03-24T06:36:18.288Z,974.47
2019-03-24T06:37:18.278Z,974.49
2019-03-24T06:38:18.270Z,974.48
2019-03-24T06:39:18.263Z,974.46
2019-03-24T06:40:19.799Z,974.5
2019-03-24T06:41:18.243Z,974.5
2019-03-24T06:42:18.234Z,974.48
2019-03-24T06:43:18.227Z,974.46
2019-03-24T06:44:18.217Z,974.46
2019-03-24T06:45:27.903Z,974.42
2019-03-24T06:46:18.201Z,974.41
2019-03-24T06:47:18.194Z,974.43
2019-03-24T06:48:18.184Z,974.38
2019-03-24T06:49:18.176Z,974.4
2019-03-24T06:50:18.169Z,974.4
2019-03-24T06:51:18.158Z,974.41
2019-03-24T06:52:18.148Z,974.39
2019-03-24T06:53:18.141Z,974.4
2019-03-24T06:54:18.132Z,974.43
2019-03-24T06:55:18.123Z,974.42
2019-03-24T06:56:18.114Z,974.44
2019-03-24T06:57:18.106Z,974.44
2019-03-24T06:58:18.097Z,974.47
2019-03-24T06:59:18.090Z,974.43
2019-03-24T07:00:18.080Z,974.45
2019-03-24T07:01:18.071Z,974.45
2019-03-24T07:02:18.062Z,974.41
2019-03-24T07:03:18.054Z,974.41
2019-03-24T07:04:18.045Z,974.42
2019-03-24T07:05:18.038Z,974.42
2019-03-24T07:06:18.028Z,974.4
2019-03-24T07:07:18.019Z,974.4
2019-03-24T07:08:18.010Z,974.41
2019-03-24T07:09:18.002Z,974.4
2019-03-24T07:10:17.995Z,974.4
2019-03-24T07:11:17.985Z,974.38
2019-03-24T07:12:17.977Z,974.37
2019-03-24T07:13:17.967Z,974.34
2019-03-24T07:14:17.960Z,974.33
2019-03-24T07:15:17.950Z,974.34
2019-03-24T07:16:18.570Z,974.36
2019-03-24T07:17:17.932Z,974.37
2019-03-24T07:18:17.929Z,974.36
2019-03-24T07:19:17.916Z,974.35
2019-03-24T07:20:17.908Z,974.33
2019-03-24T07:21:17.899Z,974.35
2019-03-24T07:22:17.890Z,974.41
2019-03-24T07:23:17.883Z,974.35
2019-03-24T07:24:17.873Z,974.38
2019-03-24T07:25:17.872Z,974.38
2019-03-24T07:26:17.859Z,974.37
2019-03-24T07:27:17.849Z,974.31
2019-03-24T07:28:17.838Z,974.31
2019-03-24T07:29:17.831Z,974.3
2019-03-24T07:30:17.824Z,974.28
2019-03-24T07:31:17.815Z,974.28
2019-03-24T07:32:17.808Z,974.27
2019-03-24T07:33:17.797Z,974.28
2019-03-24T07:34:17.939Z,974.25
2019-03-24T07:35:18.379Z,974.3
2019-03-24T07:36:17.772Z,974.24
2019-03-24T07:37:17.764Z,974.2
2019-03-24T07:38:17.758Z,974.16
2019-03-24T07:39:17.745Z,974.19
2019-03-24T07:40:17.737Z,974.18
2019-03-24T07:41:17.730Z,974.15
2019-03-24T07:42:17.721Z,974.19
2019-03-24T07:43:17.712Z,974.14
2019-03-24T07:44:17.704Z,974.16
2019-03-24T07:45:17.698Z,974.18
2019-03-24T07:46:17.686Z,974.19
2019-03-24T07:47:17.679Z,974.16
2019-03-24T07:48:19.195Z,974.21
2019-03-24T07:49:17.667Z,974.2
2019-03-24T07:50:17.653Z,974.19
2019-03-24T07:51:17.644Z,974.21
2019-03-24T07:52:17.636Z,974.19
2019-03-24T07:53:17.628Z,974.21
2019-03-24T07:54:17.620Z,974.24
2019-03-24T07:55:17.612Z,974.23
2019-03-24T07:56:17.603Z,974.24
2019-03-24T07:57:17.595Z,974.28
2019-03-24T07:58:17.586Z,974.26
2019-03-24T07:59:17.585Z,974.26
2019-03-24T08:00:17.570Z,974.23
2019-03-24T08:01:17.561Z,974.26
2019-03-24T08:02:17.553Z,974.25
2019-03-24T08:03:17.547Z,974.21
2019-03-24T08:04:17.535Z,974.22
2019-03-24T08:05:17.527Z,974.2
2019-03-24T08:06:17.519Z,974.22
2019-03-24T08:07:17.511Z,974.18
2019-03-24T08:08:17.502Z,974.13
2019-03-24T08:09:17.494Z,974.17
2019-03-24T08:10:17.487Z,974.18
2019-03-24T08:11:17.478Z,974.17
2019-03-24T08:12:17.469Z,974.17
2019-03-24T08:13:17.461Z,974.16
2019-03-24T08:14:17.452Z,974.2
2019-03-24T08:15:17.443Z,974.18
2019-03-24T08:16:17.436Z,974.19
2019-03-24T08:17:17.428Z,974.18
2019-03-24T08:18:17.420Z,974.18
2019-03-24T08:19:17.411Z,974.16
2019-03-24T08:20:17.403Z,974.15
2019-03-24T08:21:17.394Z,974.13
2019-03-24T08:22:17.387Z,974.15
2019-03-24T08:23:17.382Z,974.16
2019-03-24T08:24:17.370Z,974.12
2019-03-24T08:25:19.108Z,974.14
2019-03-24T08:26:17.359Z,974.12
2019-03-24T08:27:17.346Z,974.11
2019-03-24T08:28:17.338Z,974.07
2019-03-24T08:29:17.330Z,974.06
2019-03-24T08:30:17.321Z,974.03
2019-03-24T08:31:17.313Z,974.05
2019-03-24T08:32:17.305Z,974.04
2019-03-24T08:33:17.296Z,974.02
2019-03-24T08:34:17.288Z,974.02
2019-03-24T08:35:17.280Z,974.05
2019-03-24T08:36:17.273Z,974.02
2019-03-24T08:37:17.265Z,974.04
2019-03-24T08:38:17.255Z,974.04
2019-03-24T08:39:17.248Z,974.06
2019-03-24T08:40:17.240Z,974.03
2019-03-24T08:41:17.242Z,974.08
2019-03-24T08:42:17.224Z,974.08
2019-03-24T08:43:17.215Z,974.06
2019-03-24T08:44:17.205Z,974.09
2019-03-24T08:45:17.212Z,974.07
2019-03-24T08:46:17.191Z,974.11
2019-03-24T08:47:17.183Z,974.09
2019-03-24T08:48:17.173Z,974.05
2019-03-24T08:49:17.165Z,974.06
2019-03-24T08:50:17.157Z,974.08
2019-03-24T08:51:17.150Z,974.06
2019-03-24T08:52:17.141Z,974.05
2019-03-24T08:53:17.133Z,974.06
2019-03-24T08:54:17.127Z,974.02
2019-03-24T08:55:17.118Z,974.04
2019-03-24T08:56:17.109Z,974
2019-03-24T08:57:17.150Z,973.99
2019-03-24T08:58:17.093Z,973.98
2019-03-24T08:59:17.084Z,974
2019-03-24T09:00:17.078Z,973.97
2019-03-24T09:01:17.070Z,973.96
2019-03-24T09:02:17.062Z,973.97
2019-03-24T09:03:17.053Z,973.94
2019-03-24T09:04:17.045Z,973.96
2019-03-24T09:05:17.036Z,974
2019-03-24T09:06:17.027Z,974.03
2019-03-24T09:07:17.027Z,974.04
2019-03-24T09:08:17.012Z,974.03
2019-03-24T09:09:17.004Z,974.01
2019-03-24T09:10:16.996Z,974.05
2019-03-24T09:11:16.992Z,974.01
2019-03-24T09:12:16.980Z,974.04
2019-03-24T09:13:16.973Z,974.02
2019-03-24T09:14:16.963Z,973.99
2019-03-24T09:15:16.956Z,973.99
2019-03-24T09:16:16.948Z,973.99
2019-03-24T09:17:16.939Z,973.93
2019-03-24T09:18:16.932Z,973.98
2019-03-24T09:19:16.924Z,973.95
2019-03-24T09:20:16.917Z,973.96
2019-03-24T09:21:16.907Z,973.97
2019-03-24T09:22:16.900Z,973.92
2019-03-24T09:23:16.891Z,973.94
2019-03-24T09:24:16.885Z,973.93
2019-03-24T09:25:16.906Z,973.92
2019-03-24T09:26:16.868Z,973.86
2019-03-24T09:27:16.861Z,973.85
2019-03-24T09:28:16.852Z,973.85
2019-03-24T09:29:16.844Z,973.86
2019-03-24T09:30:16.837Z,973.85
2019-03-24T09:31:16.829Z,973.85
2019-03-24T09:32:16.820Z,973.83
2019-03-24T09:33:16.813Z,973.8
2019-03-24T09:34:16.805Z,973.81
2019-03-24T09:35:16.797Z,973.78
2019-03-24T09:36:16.788Z,973.78
2019-03-24T09:37:16.780Z,973.81
2019-03-24T09:38:16.774Z,973.81
2019-03-24T09:39:16.766Z,973.78
2019-03-24T09:40:18.530Z,973.78
2019-03-24T09:41:16.751Z,973.74
2019-03-24T09:42:16.745Z,973.69
2019-03-24T09:43:16.732Z,973.69
2019-03-24T09:44:16.726Z,973.63
2019-03-24T09:45:16.718Z,973.67
2019-03-24T09:46:16.709Z,973.62
2019-03-24T09:47:16.701Z,973.62
2019-03-24T09:48:16.693Z,973.62
2019-03-24T09:49:16.687Z,973.63
2019-03-24T09:50:16.677Z,973.65
2019-03-24T09:51:16.668Z,973.59
2019-03-24T09:52:16.662Z,973.62
2019-03-24T09:53:16.654Z,973.6
2019-03-24T09:54:16.645Z,973.57
2019-03-24T09:55:16.639Z,973.55
2019-03-24T09:56:16.631Z,973.57
2019-03-24T09:57:16.625Z,973.51
2019-03-24T09:58:16.620Z,973.54
2019-03-24T09:59:16.608Z,973.51
2019-03-24T10:00:16.600Z,973.5
2019-03-24T10:01:16.592Z,973.51
2019-03-24T10:02:16.584Z,973.46
2019-03-24T10:03:16.576Z,973.44
2019-03-24T10:04:16.570Z,973.38
2019-03-24T10:05:16.559Z,973.42
2019-03-24T10:06:16.553Z,973.37
2019-03-24T10:07:16.551Z,973.4
2019-03-24T10:08:16.536Z,973.35
2019-03-24T10:09:16.529Z,973.37
2019-03-24T10:10:16.522Z,973.41
2019-03-24T10:11:16.512Z,973.39
2019-03-24T10:12:16.506Z,973.38
2019-03-24T10:13:16.497Z,973.35
2019-03-24T10:14:16.490Z,973.34
2019-03-24T10:15:16.484Z,973.33
2019-03-24T10:16:16.472Z,973.3
2019-03-24T10:17:16.466Z,973.29
2019-03-24T10:18:16.459Z,973.29
2019-03-24T10:19:16.452Z,973.27
2019-03-24T10:20:16.491Z,973.24
2019-03-24T10:21:16.434Z,973.25
2019-03-24T10:22:16.428Z,973.27
2019-03-24T10:23:16.416Z,973.26
2019-03-24T10:24:16.410Z,973.24
2019-03-24T10:25:16.402Z,973.25
2019-03-24T10:26:16.394Z,973.26
2019-03-24T10:27:16.385Z,973.22
2019-03-24T10:28:16.376Z,973.21
2019-03-24T10:29:16.371Z,973.2
2019-03-24T10:30:16.361Z,973.18
2019-03-24T10:31:16.354Z,973.25
2019-03-24T10:32:16.347Z,973.2
2019-03-24T10:33:16.337Z,973.19
2019-03-24T10:34:16.329Z,973.18
2019-03-24T10:35:16.321Z,973.16
2019-03-24T10:36:16.313Z,973.18
2019-03-24T10:37:16.305Z,973.17
2019-03-24T10:38:16.297Z,973.1
2019-03-24T10:39:16.289Z,973.1
2019-03-24T10:40:16.281Z,973.06
2019-03-24T10:41:16.272Z,973.1
2019-03-24T10:42:16.266Z,973.07
2019-03-24T10:43:16.257Z,973.1
2019-03-24T10:44:16.250Z,973.04
2019-03-24T10:45:16.240Z,973.07
2019-03-24T10:46:16.233Z,973.04
2019-03-24T10:47:16.225Z,973.07
2019-03-24T10:48:16.218Z,973.06
2019-03-24T10:49:24.322Z,973.07
2019-03-24T10:50:16.200Z,973.07
2019-03-24T10:51:16.194Z,973
2019-03-24T10:52:16.186Z,973.04
2019-03-24T10:53:16.178Z,973.02
2019-03-24T10:54:16.171Z,972.99
2019-03-24T10:55:16.164Z,973
2019-03-24T10:56:16.155Z,972.98
2019-03-24T10:57:16.148Z,972.99
2019-03-24T10:58:16.140Z,972.98
2019-03-24T10:59:16.133Z,972.97
2019-03-24T11:00:16.124Z,972.96
2019-03-24T11:01:16.116Z,972.95
2019-03-24T11:02:16.109Z,972.97
2019-03-24T11:03:16.101Z,972.95
2019-03-24T11:04:16.093Z,972.95
2019-03-24T11:05:16.086Z,972.95
2019-03-24T11:06:16.079Z,972.91
2019-03-24T11:07:16.071Z,972.89
2019-03-24T11:08:16.063Z,972.89
2019-03-24T11:09:16.056Z,972.88
2019-03-24T11:10:16.048Z,972.88
2019-03-24T11:11:16.040Z,972.86
2019-03-24T11:12:16.183Z,972.88
2019-03-24T11:13:16.025Z,972.85
2019-03-24T11:14:16.017Z,972.88
2019-03-24T11:15:16.010Z,972.89
2019-03-24T11:16:16.003Z,972.85
2019-03-24T11:17:15.996Z,972.85
2019-03-24T11:18:15.987Z,972.81
2019-03-24T11:19:15.980Z,972.76
2019-03-24T11:20:15.973Z,972.76
2019-03-24T11:21:15.965Z,972.72
2019-03-24T11:22:15.960Z,972.72
2019-03-24T11:23:15.950Z,972.69
2019-03-24T11:24:15.943Z,972.68
2019-03-24T11:25:15.935Z,972.73
2019-03-24T11:26:15.927Z,972.73
2019-03-24T11:27:15.920Z,972.72
2019-03-24T11:28:15.913Z,972.71
2019-03-24T11:29:15.905Z,972.71
2019-03-24T11:30:15.901Z,972.72
2019-03-24T11:31:15.891Z,972.69
2019-03-24T11:32:15.883Z,972.7
2019-03-24T11:33:15.876Z,972.68
2019-03-24T11:34:15.869Z,972.68
2019-03-24T11:35:15.862Z,972.63
2019-03-24T11:36:15.854Z,972.66
2019-03-24T11:37:15.847Z,972.64
2019-03-24T11:38:15.839Z,972.61
2019-03-24T11:39:15.832Z,972.65
2019-03-24T11:40:15.825Z,972.6
2019-03-24T11:41:15.816Z,972.58
2019-03-24T11:42:15.809Z,972.58
2019-03-24T11:43:15.808Z,972.54
2019-03-24T11:44:15.798Z,972.54
2019-03-24T11:45:15.789Z,972.48
2019-03-24T11:46:15.822Z,972.51
2019-03-24T11:47:25.955Z,972.46
2019-03-24T11:48:15.763Z,972.46
2019-03-24T11:49:15.755Z,972.45
2019-03-24T11:50:15.749Z,972.46
2019-03-24T11:51:15.741Z,972.39
2019-03-24T11:52:15.733Z,972.41
2019-03-24T11:53:15.725Z,972.36
2019-03-24T11:54:15.717Z,972.37
2019-03-24T11:55:15.710Z,972.39
2019-03-24T11:56:15.705Z,972.37
2019-03-24T11:57:15.738Z,972.37
2019-03-24T11:58:15.687Z,972.31
2019-03-24T11:59:15.680Z,972.3
2019-03-24T12:00:15.672Z,972.32
2019-03-24T12:01:15.668Z,972.29
2019-03-24T12:02:15.657Z,972.3
2019-03-24T12:03:15.650Z,972.25
2019-03-24T12:04:15.642Z,972.27
2019-03-24T12:05:15.634Z,972.26
2019-03-24T12:06:15.627Z,972.26
2019-03-24T12:07:15.618Z,972.2
2019-03-24T12:08:15.612Z,972.2
2019-03-24T12:09:15.603Z,972.24
2019-03-24T12:10:15.598Z,972.22
2019-03-24T12:11:15.589Z,972.16
2019-03-24T12:12:15.582Z,972.18
2019-03-24T12:13:15.577Z,972.18
2019-03-24T12:14:15.567Z,972.15
2019-03-24T12:15:15.559Z,972.17
2019-03-24T12:16:15.551Z,972.14
2019-03-24T12:17:15.543Z,972.12
2019-03-24T12:18:15.536Z,972.12
2019-03-24T12:19:15.530Z,972.09
2019-03-24T12:20:15.519Z,972.07
2019-03-24T12:21:15.512Z,972.05
2019-03-24T12:22:15.506Z,972.04
2019-03-24T12:23:15.497Z,971.99
2019-03-24T12:24:15.489Z,972.01
2019-03-24T12:25:15.483Z,972.01
2019-03-24T12:26:15.477Z,971.98
2019-03-24T12:27:15.469Z,971.93
2019-03-24T12:28:15.462Z,971.97
2019-03-24T12:29:15.451Z,971.95
2019-03-24T12:30:15.445Z,971.93
2019-03-24T12:31:15.437Z,971.92